Terminal Aerodrome Forecast
Issued by NWS

Home | Current Version | Previous Version | Text Only | Print | Product List | Glossary On
Versions: 1 2 3 4 5 6 7 8 9 10 11 12 13 14 15 16 17 18 19 20
776
FTUS43 KLSX 241307 AAA
TAFSUS
TAF AMD
KSUS 241307Z 2413/2512 11004KT P6SM OVC020
      TEMPO 2413/2415 OVC018
     FM241600 13006KT P6SM BKN200
     FM241900 14010G17KT P6SM BKN200
     FM250200 15009KT P6SM BKN040 WS020/20040KT
     FM250900 21008KT P6SM SCT250=

USA.gov is the U.S. government's official web portal to all federal, state and local government web resources and services.